sensor_id;sensor_type;location;lat;lon;timestamp;pressure;altitude;pressure_sealevel;temperature;humidity
68380;BME280;57711;53.196;19.638;2023-04-05T00:00:37;100847.82;;;1.01;52.53
68380;BME280;57711;53.196;19.638;2023-04-05T00:03:13;100844.95;;;1.02;52.48
68380;BME280;57711;53.196;19.638;2023-04-05T00:05:45;100841.84;;;1.00;52.51
68380;BME280;57711;53.196;19.638;2023-04-05T00:08:12;100839.54;;;0.99;52.57
68380;BME280;57711;53.196;19.638;2023-04-05T00:10:44;100838.62;;;1.00;52.52
68380;BME280;57711;53.196;19.638;2023-04-05T00:13:11;100841.27;;;1.01;52.52
68380;BME280;57711;53.196;19.638;2023-04-05T00:15:38;100839.17;;;1.03;52.51
68380;BME280;57711;53.196;19.638;2023-04-05T00:18:06;100835.48;;;1.07;52.52
68380;BME280;57711;53.196;19.638;2023-04-05T00:20:33;100833.70;;;1.11;52.56
68380;BME280;57711;53.196;19.638;2023-04-05T00:23:03;100836.23;;;1.15;52.55
68380;BME280;57711;53.196;19.638;2023-04-05T00:25:32;100830.58;;;1.18;52.70
68380;BME280;57711;53.196;19.638;2023-04-05T00:27:59;100833.02;;;1.19;52.57
68380;BME280;57711;53.196;19.638;2023-04-05T00:30:27;100830.15;;;1.20;52.69
68380;BME280;57711;53.196;19.638;2023-04-05T00:32:55;100831.74;;;1.16;52.55
68380;BME280;57711;53.196;19.638;2023-04-05T00:35:22;100827.20;;;1.13;52.60
68380;BME280;57711;53.196;19.638;2023-04-05T00:37:49;100822.98;;;1.08;52.59
68380;BME280;57711;53.196;19.638;2023-04-05T00:40:16;100823.86;;;1.03;52.64
68380;BME280;57711;53.196;19.638;2023-04-05T00:42:43;100821.02;;;0.99;52.63
68380;BME280;57711;53.196;19.638;2023-04-05T00:45:11;100819.41;;;0.94;52.64
68380;BME280;57711;53.196;19.638;2023-04-05T00:47:42;100820.09;;;0.91;52.67
68380;BME280;57711;53.196;19.638;2023-04-05T00:50:11;100818.88;;;0.90;52.65
68380;BME280;57711;53.196;19.638;2023-04-05T00:52:39;100815.45;;;0.91;52.85
68380;BME280;57711;53.196;19.638;2023-04-05T00:55:08;100814.87;;;0.93;52.85
68380;BME280;57711;53.196;19.638;2023-04-05T00:57:36;100809.14;;;0.93;52.85
68380;BME280;57711;53.196;19.638;2023-04-05T01:00:06;100815.48;;;0.91;52.80
68380;BME280;57711;53.196;19.638;2023-04-05T01:02:40;100812.17;;;0.89;52.82
68380;BME280;57711;53.196;19.638;2023-04-05T01:10:31;100801.46;;;0.89;52.93
68380;BME280;57711;53.196;19.638;2023-04-05T01:13:01;100801.14;;;0.88;52.90
68380;BME280;57711;53.196;19.638;2023-04-05T01:15:29;100802.02;;;0.89;52.95
68380;BME280;57711;53.196;19.638;2023-04-05T01:17:57;100800.89;;;0.90;52.99
68380;BME280;57711;53.196;19.638;2023-04-05T01:20:37;100799.05;;;0.92;52.99
68380;BME280;57711;53.196;19.638;2023-04-05T01:26:08;100792.83;;;0.96;53.10
68380;BME280;57711;53.196;19.638;2023-04-05T01:31:45;100786.33;;;0.94;53.11
68380;BME280;57711;53.196;19.638;2023-04-05T01:37:14;100786.55;;;1.01;53.11
68380;BME280;57711;53.196;19.638;2023-04-05T01:39:44;100785.74;;;1.08;53.22
68380;BME280;57711;53.196;19.638;2023-04-05T01:42:16;100784.92;;;1.15;53.18
68380;BME280;57711;53.196;19.638;2023-04-05T01:44:51;100783.96;;;1.21;53.13
68380;BME280;57711;53.196;19.638;2023-04-05T01:47:19;100781.69;;;1.25;53.21
68380;BME280;57711;53.196;19.638;2023-04-05T01:49:47;100780.95;;;1.29;53.18
68380;BME280;57711;53.196;19.638;2023-04-05T01:52:14;100783.11;;;1.33;53.21
68380;BME280;57711;53.196;19.638;2023-04-05T01:54:42;100784.13;;;1.34;53.29
68380;BME280;57711;53.196;19.638;2023-04-05T01:57:09;100782.30;;;1.35;53.27
68380;BME280;57711;53.196;19.638;2023-04-05T01:59:36;100785.20;;;1.34;53.30
68380;BME280;57711;53.196;19.638;2023-04-05T02:02:04;100779.52;;;1.34;53.30
68380;BME280;57711;53.196;19.638;2023-04-05T02:04:32;100779.42;;;1.36;53.36
68380;BME280;57711;53.196;19.638;2023-04-05T02:06:59;100780.48;;;1.36;53.40
68380;BME280;57711;53.196;19.638;2023-04-05T02:09:26;100777.89;;;1.34;53.43
68380;BME280;57711;53.196;19.638;2023-04-05T02:11:54;100774.17;;;1.34;53.46
68380;BME280;57711;53.196;19.638;2023-04-05T02:14:23;100773.44;;;1.34;53.45
68380;BME280;57711;53.196;19.638;2023-04-05T02:16:51;100764.73;;;1.34;53.41
68380;BME280;57711;53.196;19.638;2023-04-05T02:19:23;100763.51;;;1.32;53.43
68380;BME280;57711;53.196;19.638;2023-04-05T02:21:51;100768.23;;;1.30;53.46
68380;BME280;57711;53.196;19.638;2023-04-05T02:24:22;100765.96;;;1.25;53.43
68380;BME280;57711;53.196;19.638;2023-04-05T02:26:49;100763.83;;;1.21;53.47
68380;BME280;57711;53.196;19.638;2023-04-05T02:29:17;100761.83;;;1.18;53.47
68380;BME280;57711;53.196;19.638;2023-04-05T02:31:44;100764.55;;;1.17;53.53
68380;BME280;57711;53.196;19.638;2023-04-05T02:34:12;100767.19;;;1.18;53.61
68380;BME280;57711;53.196;19.638;2023-04-05T02:36:40;100766.95;;;1.19;53.70
68380;BME280;57711;53.196;19.638;2023-04-05T02:39:07;100764.40;;;1.20;53.64
68380;BME280;57711;53.196;19.638;2023-04-05T02:41:37;100762.64;;;1.20;53.62
68380;BME280;57711;53.196;19.638;2023-04-05T02:44:04;100766.52;;;1.21;53.70
68380;BME280;57711;53.196;19.638;2023-04-05T02:46:31;100768.59;;;1.22;53.75
68380;BME280;57711;53.196;19.638;2023-04-05T02:48:59;100764.78;;;1.24;53.75
68380;BME280;57711;53.196;19.638;2023-04-05T02:51:27;100764.72;;;1.26;53.72
68380;BME280;57711;53.196;19.638;2023-04-05T02:53:54;100762.17;;;1.26;53.64
68380;BME280;57711;53.196;19.638;2023-04-05T02:56:22;100763.07;;;1.30;53.69
68380;BME280;57711;53.196;19.638;2023-04-05T02:58:50;100758.21;;;1.36;53.80
68380;BME280;57711;53.196;19.638;2023-04-05T03:01:21;100760.65;;;1.41;53.81
68380;BME280;57711;53.196;19.638;2023-04-05T03:03:48;100759.02;;;1.41;53.73
68380;BME280;57711;53.196;19.638;2023-04-05T03:06:16;100761.28;;;1.43;53.87
68380;BME280;57711;53.196;19.638;2023-04-05T03:08:47;100762.16;;;1.48;53.90
68380;BME280;57711;53.196;19.638;2023-04-05T03:11:21;100759.14;;;1.47;53.72
68380;BME280;57711;53.196;19.638;2023-04-05T03:13:51;100759.06;;;1.45;53.76
68380;BME280;57711;53.196;19.638;2023-04-05T03:16:29;100763.67;;;1.41;53.84
68380;BME280;57711;53.196;19.638;2023-04-05T03:18:57;100759.27;;;1.40;53.90
68380;BME280;57711;53.196;19.638;2023-04-05T03:21:26;100759.80;;;1.40;53.95
68380;BME280;57711;53.196;19.638;2023-04-05T03:24:02;100757.27;;;1.37;53.83
68380;BME280;57711;53.196;19.638;2023-04-05T03:26:35;100762.61;;;1.33;53.84
68380;BME280;57711;53.196;19.638;2023-04-05T03:29:02;100758.30;;;1.34;53.98
68380;BME280;57711;53.196;19.638;2023-04-05T03:31:32;100757.83;;;1.37;54.02
68380;BME280;57711;53.196;19.638;2023-04-05T03:34:01;100757.29;;;1.37;54.07
68380;BME280;57711;53.196;19.638;2023-04-05T03:36:35;100756.23;;;1.36;54.09
68380;BME280;57711;53.196;19.638;2023-04-05T03:39:17;100757.69;;;1.36;54.02
68380;BME280;57711;53.196;19.638;2023-04-05T03:41:44;100755.27;;;1.34;54.08
68380;BME280;57711;53.196;19.638;2023-04-05T03:44:12;100754.48;;;1.31;54.01
68380;BME280;57711;53.196;19.638;2023-04-05T03:46:39;100752.48;;;1.28;54.09
68380;BME280;57711;53.196;19.638;2023-04-05T03:49:08;100754.34;;;1.27;54.12
68380;BME280;57711;53.196;19.638;2023-04-05T03:51:35;100753.65;;;1.26;54.15
68380;BME280;57711;53.196;19.638;2023-04-05T03:54:02;100751.38;;;1.25;54.18
68380;BME280;57711;53.196;19.638;2023-04-05T03:56:31;100751.48;;;1.27;54.21
68380;BME280;57711;53.196;19.638;2023-04-05T03:59:07;100751.06;;;1.28;54.23
68380;BME280;57711;53.196;19.638;2023-04-05T04:01:35;100754.02;;;1.30;54.19
68380;BME280;57711;53.196;19.638;2023-04-05T04:04:03;100750.10;;;1.34;54.25
68380;BME280;57711;53.196;19.638;2023-04-05T04:06:31;100752.95;;;1.38;54.23
68380;BME280;57711;53.196;19.638;2023-04-05T04:08:58;100757.59;;;1.42;54.26
68380;BME280;57711;53.196;19.638;2023-04-05T04:11:27;100751.73;;;1.46;54.26
68380;BME280;57711;53.196;19.638;2023-04-05T04:13:55;100751.66;;;1.47;54.22
68380;BME280;57711;53.196;19.638;2023-04-05T04:16:45;100757.70;;;1.47;54.22
68380;BME280;57711;53.196;19.638;2023-04-05T04:19:28;100754.65;;;1.48;54.35
68380;BME280;57711;53.196;19.638;2023-04-05T04:22:22;100757.48;;;1.48;54.35
68380;BME280;57711;53.196;19.638;2023-04-05T04:25:08;100763.09;;;1.47;54.33
68380;BME280;57711;53.196;19.638;2023-04-05T04:27:55;100764.24;;;1.44;54.40
68380;BME280;57711;53.196;19.638;2023-04-05T04:30:56;100763.74;;;1.44;54.42
68380;BME280;57711;53.196;19.638;2023-04-05T04:33:35;100765.17;;;1.44;54.51
68380;BME280;57711;53.196;19.638;2023-04-05T04:36:28;100764.13;;;1.43;54.49
68380;BME280;57711;53.196;19.638;2023-04-05T04:39:33;100765.35;;;1.44;54.55
68380;BME280;57711;53.196;19.638;2023-04-05T04:42:21;100766.23;;;1.44;54.55
68380;BME280;57711;53.196;19.638;2023-04-05T04:44:52;100767.86;;;1.44;54.46
68380;BME280;57711;53.196;19.638;2023-04-05T04:47:44;100767.04;;;1.42;54.56
68380;BME280;57711;53.196;19.638;2023-04-05T04:50:42;100768.02;;;1.40;54.54
68380;BME280;57711;53.196;19.638;2023-04-05T04:53:12;100770.27;;;1.37;54.56
68380;BME280;57711;53.196;19.638;2023-04-05T04:55:40;100765.55;;;1.35;54.52
68380;BME280;57711;53.196;19.638;2023-04-05T04:58:09;100761.48;;;1.34;54.69
68380;BME280;57711;53.196;19.638;2023-04-05T05:00:39;100760.05;;;1.35;54.70
68380;BME280;57711;53.196;19.638;2023-04-05T05:03:07;100765.23;;;1.34;54.73
68380;BME280;57711;53.196;19.638;2023-04-05T05:05:48;100765.18;;;1.35;54.72
68380;BME280;57711;53.196;19.638;2023-04-05T05:08:20;100768.95;;;1.39;54.70
68380;BME280;57711;53.196;19.638;2023-04-05T05:10:51;100773.66;;;1.45;54.72
68380;BME280;57711;53.196;19.638;2023-04-05T05:13:19;100767.20;;;1.51;54.66
68380;BME280;57711;53.196;19.638;2023-04-05T05:15:46;100764.52;;;1.55;54.80
68380;BME280;57711;53.196;19.638;2023-04-05T05:18:14;100764.54;;;1.59;54.63
68380;BME280;57711;53.196;19.638;2023-04-05T05:20:42;100767.33;;;1.60;54.68
68380;BME280;57711;53.196;19.638;2023-04-05T05:23:09;100769.58;;;1.62;54.73
68380;BME280;57711;53.196;19.638;2023-04-05T05:25:36;100768.26;;;1.63;54.79
68380;BME280;57711;53.196;19.638;2023-04-05T05:28:04;100767.85;;;1.64;54.83
68380;BME280;57711;53.196;19.638;2023-04-05T05:30:31;100769.04;;;1.65;54.84
68380;BME280;57711;53.196;19.638;2023-04-05T05:32:59;100768.43;;;1.63;54.86
68380;BME280;57711;53.196;19.638;2023-04-05T05:35:27;100768.73;;;1.64;54.90
68380;BME280;57711;53.196;19.638;2023-04-05T05:37:54;100770.31;;;1.65;54.95
68380;BME280;57711;53.196;19.638;2023-04-05T05:40:22;100767.48;;;1.69;55.00
68380;BME280;57711;53.196;19.638;2023-04-05T05:42:49;100768.31;;;1.70;55.01
68380;BME280;57711;53.196;19.638;2023-04-05T05:45:16;100769.13;;;1.72;55.01
68380;BME280;57711;53.196;19.638;2023-04-05T05:47:43;100767.59;;;1.74;55.11
68380;BME280;57711;53.196;19.638;2023-04-05T05:50:11;100768.41;;;1.76;55.12
68380;BME280;57711;53.196;19.638;2023-04-05T05:52:38;100768.38;;;1.77;55.11
68380;BME280;57711;53.196;19.638;2023-04-05T05:55:06;100772.98;;;1.77;55.14
68380;BME280;57711;53.196;19.638;2023-04-05T05:57:33;100771.45;;;1.76;55.16
68380;BME280;57711;53.196;19.638;2023-04-05T06:00:00;100771.45;;;1.75;55.15
68380;BME280;57711;53.196;19.638;2023-04-05T06:02:37;100769.43;;;1.77;55.15
68380;BME280;57711;53.196;19.638;2023-04-05T06:05:04;100770.99;;;1.78;55.24
68380;BME280;57711;53.196;19.638;2023-04-05T06:07:36;100768.95;;;1.80;55.22
68380;BME280;57711;53.196;19.638;2023-04-05T06:10:04;100778.54;;;1.80;55.19
68380;BME280;57711;53.196;19.638;2023-04-05T06:12:32;100777.63;;;1.81;55.13
68380;BME280;57711;53.196;19.638;2023-04-05T06:15:00;100773.61;;;1.83;55.25
68380;BME280;57711;53.196;19.638;2023-04-05T06:17:27;100772.89;;;1.87;55.20
68380;BME280;57711;53.196;19.638;2023-04-05T06:19:55;100774.37;;;1.90;55.17
68380;BME280;57711;53.196;19.638;2023-04-05T06:22:22;100775.02;;;1.96;55.18
68380;BME280;57711;53.196;19.638;2023-04-05T06:24:49;100774.17;;;2.02;55.24
68380;BME280;57711;53.196;19.638;2023-04-05T06:27:16;100769.85;;;2.07;55.16
68380;BME280;57711;53.196;19.638;2023-04-05T06:29:43;100769.22;;;2.09;55.18
68380;BME280;57711;53.196;19.638;2023-04-05T06:32:11;100768.89;;;2.13;55.27
68380;BME280;57711;53.196;19.638;2023-04-05T06:34:38;100767.30;;;2.16;55.34
68380;BME280;57711;53.196;19.638;2023-04-05T06:37:05;100773.73;;;2.20;55.36
68380;BME280;57711;53.196;19.638;2023-04-05T06:39:32;100769.94;;;2.21;55.29
68380;BME280;57711;53.196;19.638;2023-04-05T06:41:59;100771.77;;;2.23;55.35
68380;BME280;57711;53.196;19.638;2023-04-05T06:44:27;100774.21;;;2.25;55.35
68380;BME280;57711;53.196;19.638;2023-04-05T06:46:54;100775.39;;;2.26;55.39
68380;BME280;57711;53.196;19.638;2023-04-05T06:49:22;100777.05;;;2.25;55.35
68380;BME280;57711;53.196;19.638;2023-04-05T06:51:49;100771.42;;;2.23;55.40
68380;BME280;57711;53.196;19.638;2023-04-05T06:54:16;100769.35;;;2.22;55.43
68380;BME280;57711;53.196;19.638;2023-04-05T06:56:43;100766.10;;;2.23;55.29
68380;BME280;57711;53.196;19.638;2023-04-05T06:59:10;100765.03;;;2.22;55.40
68380;BME280;57711;53.196;19.638;2023-04-05T07:01:38;100766.75;;;2.24;55.47
68380;BME280;57711;53.196;19.638;2023-04-05T07:04:05;100767.39;;;2.26;55.38
68380;BME280;57711;53.196;19.638;2023-04-05T07:06:32;100766.82;;;2.27;55.56
68380;BME280;57711;53.196;19.638;2023-04-05T07:09:01;100766.25;;;2.27;55.55
68380;BME280;57711;53.196;19.638;2023-04-05T07:11:28;100772.23;;;2.29;55.54
68380;BME280;57711;53.196;19.638;2023-04-05T07:13:59;100773.05;;;2.31;55.54
68380;BME280;57711;53.196;19.638;2023-04-05T07:16:26;100776.94;;;2.35;55.66
68380;BME280;57711;53.196;19.638;2023-04-05T07:18:55;100777.78;;;2.40;55.55
68380;BME280;57711;53.196;19.638;2023-04-05T07:21:22;100780.95;;;2.45;55.50
68380;BME280;57711;53.196;19.638;2023-04-05T07:23:50;100783.48;;;2.52;55.61
68380;BME280;57711;53.196;19.638;2023-04-05T07:26:19;100778.95;;;2.57;55.59
68380;BME280;57711;53.196;19.638;2023-04-05T07:28:48;100780.23;;;2.60;55.59
68380;BME280;57711;53.196;19.638;2023-04-05T07:31:15;100780.48;;;2.66;55.75
68380;BME280;57711;53.196;19.638;2023-04-05T07:33:42;100782.82;;;2.70;55.66
68380;BME280;57711;53.196;19.638;2023-04-05T07:36:10;100783.86;;;2.74;55.68
68380;BME280;57711;53.196;19.638;2023-04-05T07:38:37;100788.43;;;2.79;55.67
68380;BME280;57711;53.196;19.638;2023-04-05T07:41:04;100780.98;;;2.82;55.77
68380;BME280;57711;53.196;19.638;2023-04-05T07:43:32;100780.27;;;2.85;55.52
68380;BME280;57711;53.196;19.638;2023-04-05T07:46:01;100780.40;;;2.90;55.67
68380;BME280;57711;53.196;19.638;2023-04-05T07:48:29;100782.69;;;2.91;55.60
68380;BME280;57711;53.196;19.638;2023-04-05T07:51:04;100781.58;;;2.91;55.65
68380;BME280;57711;53.196;19.638;2023-04-05T07:53:34;100783.70;;;2.99;55.69
68380;BME280;57711;53.196;19.638;2023-04-05T07:56:09;100782.45;;;3.02;55.66
68380;BME280;57711;53.196;19.638;2023-04-05T07:58:37;100782.12;;;3.06;55.63
68380;BME280;57711;53.196;19.638;2023-04-05T08:01:08;100782.23;;;3.11;55.62
68380;BME280;57711;53.196;19.638;2023-04-05T08:03:37;100781.64;;;3.16;55.75
68380;BME280;57711;53.196;19.638;2023-04-05T08:06:10;100784.86;;;3.23;55.55
68380;BME280;57711;53.196;19.638;2023-04-05T08:08:39;100785.26;;;3.26;55.56
68380;BME280;57711;53.196;19.638;2023-04-05T08:11:06;100785.63;;;3.29;55.64
68380;BME280;57711;53.196;19.638;2023-04-05T08:13:34;100783.19;;;3.34;55.67
68380;BME280;57711;53.196;19.638;2023-04-05T08:16:02;100780.44;;;3.39;55.51
68380;BME280;57711;53.196;19.638;2023-04-05T08:18:29;100781.70;;;3.43;55.61
68380;BME280;57711;53.196;19.638;2023-04-05T08:20:57;100785.88;;;3.48;55.55
68380;BME280;57711;53.196;19.638;2023-04-05T08:23:24;100783.21;;;3.51;55.54
68380;BME280;57711;53.196;19.638;2023-04-05T08:25:51;100786.20;;;3.56;55.56
68380;BME280;57711;53.196;19.638;2023-04-05T08:28:19;100783.39;;;3.62;55.66
68380;BME280;57711;53.196;19.638;2023-04-05T08:30:46;100786.86;;;3.71;55.72
68380;BME280;57711;53.196;19.638;2023-04-05T08:33:13;100786.77;;;3.79;55.66
68380;BME280;57711;53.196;19.638;2023-04-05T08:35:41;100789.05;;;3.84;55.51
68380;BME280;57711;53.196;19.638;2023-04-05T08:38:09;100786.38;;;3.87;55.38
68380;BME280;57711;53.196;19.638;2023-04-05T08:40:42;100786.63;;;3.92;55.53
68380;BME280;57711;53.196;19.638;2023-04-05T08:43:35;100790.02;;;3.99;55.52
68380;BME280;57711;53.196;19.638;2023-04-05T08:46:08;100791.20;;;4.07;55.45
68380;BME280;57711;53.196;19.638;2023-04-05T08:48:35;100785.16;;;4.13;55.47
68380;BME280;57711;53.196;19.638;2023-04-05T08:51:05;100783.23;;;4.22;55.47
68380;BME280;57711;53.196;19.638;2023-04-05T08:53:35;100777.94;;;4.27;55.41
68380;BME280;57711;53.196;19.638;2023-04-05T08:56:02;100782.25;;;4.37;55.52
68380;BME280;57711;53.196;19.638;2023-04-05T08:58:30;100784.09;;;4.49;55.50
68380;BME280;57711;53.196;19.638;2023-04-05T09:00:58;100782.08;;;4.63;55.42
68380;BME280;57711;53.196;19.638;2023-04-05T09:03:34;100778.05;;;4.77;55.36
68380;BME280;57711;53.196;19.638;2023-04-05T09:06:06;100779.23;;;4.97;55.48
68380;BME280;57711;53.196;19.638;2023-04-05T09:08:35;100778.76;;;5.12;55.37
68380;BME280;57711;53.196;19.638;2023-04-05T09:11:02;100778.47;;;5.23;55.28
68380;BME280;57711;53.196;19.638;2023-04-05T09:13:30;100776.98;;;5.39;55.01
68380;BME280;57711;53.196;19.638;2023-04-05T09:16:00;100775.91;;;5.54;55.09
68380;BME280;57711;53.196;19.638;2023-04-05T09:18:27;100772.98;;;5.67;55.06
68380;BME280;57711;53.196;19.638;2023-04-05T09:21:02;100776.55;;;5.79;55.02
68380;BME280;57711;53.196;19.638;2023-04-05T09:23:32;100774.20;;;6.00;55.02
68380;BME280;57711;53.196;19.638;2023-04-05T09:26:00;100773.34;;;6.20;55.14
68380;BME280;57711;53.196;19.638;2023-04-05T09:28:39;100775.31;;;6.43;55.09
68380;BME280;57711;53.196;19.638;2023-04-05T09:31:07;100771.73;;;6.68;55.24
68380;BME280;57711;53.196;19.638;2023-04-05T09:33:34;100769.63;;;6.87;55.16
68380;BME280;57711;53.196;19.638;2023-04-05T09:36:02;100769.54;;;6.93;54.82
68380;BME280;57711;53.196;19.638;2023-04-05T09:38:43;100770.58;;;6.89;54.54
68380;BME280;57711;53.196;19.638;2023-04-05T09:41:11;100771.08;;;6.75;54.47
68380;BME280;57711;53.196;19.638;2023-04-05T09:43:39;100773.83;;;6.69;54.59
68380;BME280;57711;53.196;19.638;2023-04-05T09:46:29;100774.86;;;6.58;54.40
68380;BME280;57711;53.196;19.638;2023-04-05T09:49:00;100776.19;;;6.35;54.15
68380;BME280;57711;53.196;19.638;2023-04-05T09:51:34;100774.05;;;6.12;54.34
68380;BME280;57711;53.196;19.638;2023-04-05T09:54:07;100775.66;;;6.00;54.35
68380;BME280;57711;53.196;19.638;2023-04-05T09:56:37;100777.06;;;6.00;54.51
68380;BME280;57711;53.196;19.638;2023-04-05T09:59:10;100776.17;;;6.12;54.61
68380;BME280;57711;53.196;19.638;2023-04-05T10:01:42;100776.52;;;6.35;54.58
68380;BME280;57711;53.196;19.638;2023-04-05T10:04:09;100780.25;;;6.56;54.52
68380;BME280;57711;53.196;19.638;2023-04-05T10:06:41;100777.61;;;6.60;54.22
68380;BME280;57711;53.196;19.638;2023-04-05T10:09:10;100774.83;;;6.56;54.21
68380;BME280;57711;53.196;19.638;2023-04-05T10:11:38;100775.86;;;6.57;54.02
68380;BME280;57711;53.196;19.638;2023-04-05T10:14:06;100771.61;;;6.61;54.14
68380;BME280;57711;53.196;19.638;2023-04-05T10:16:44;100774.38;;;6.63;54.16
68380;BME280;57711;53.196;19.638;2023-04-05T10:19:28;100774.35;;;6.67;54.23
68380;BME280;57711;53.196;19.638;2023-04-05T10:22:01;100774.15;;;6.67;54.12
68380;BME280;57711;53.196;19.638;2023-04-05T10:24:49;100777.58;;;6.64;54.07
68380;BME280;57711;53.196;19.638;2023-04-05T10:27:32;100777.80;;;6.57;53.97
68380;BME280;57711;53.196;19.638;2023-04-05T10:30:05;100780.95;;;6.53;53.95
68380;BME280;57711;53.196;19.638;2023-04-05T10:32:52;100780.05;;;6.48;53.85
68380;BME280;57711;53.196;19.638;2023-04-05T10:35:54;100781.89;;;6.47;54.14
68380;BME280;57711;53.196;19.638;2023-04-05T10:38:24;100773.29;;;6.50;54.03
68380;BME280;57711;53.196;19.638;2023-04-05T10:41:01;100770.84;;;6.51;54.09
68380;BME280;57711;53.196;19.638;2023-04-05T10:43:33;100770.58;;;6.50;53.86
68380;BME280;57711;53.196;19.638;2023-04-05T10:46:01;100772.08;;;6.49;53.89
68380;BME280;57711;53.196;19.638;2023-04-05T10:51:02;100769.40;;;6.49;53.80
68380;BME280;57711;53.196;19.638;2023-04-05T10:53:30;100773.59;;;6.41;53.58
68380;BME280;57711;53.196;19.638;2023-04-05T10:56:00;100771.81;;;6.33;53.67
68380;BME280;57711;53.196;19.638;2023-04-05T10:58:28;100767.23;;;6.26;53.52
68380;BME280;57711;53.196;19.638;2023-04-05T11:00:57;100766.83;;;6.21;53.78
68380;BME280;57711;53.196;19.638;2023-04-05T11:03:40;100764.08;;;6.19;53.66
68380;BME280;57711;53.196;19.638;2023-04-05T11:08:45;100767.48;;;6.19;53.69
68380;BME280;57711;53.196;19.638;2023-04-05T11:11:17;100770.15;;;6.14;53.64
68380;BME280;57711;53.196;19.638;2023-04-05T11:13:55;100769.71;;;6.06;53.40
68380;BME280;57711;53.196;19.638;2023-04-05T11:16:37;100771.66;;;5.95;53.62
68380;BME280;57711;53.196;19.638;2023-04-05T11:19:05;100766.83;;;5.88;53.41
68380;BME280;57711;53.196;19.638;2023-04-05T11:21:33;100771.08;;;5.83;53.43
68380;BME280;57711;53.196;19.638;2023-04-05T11:26:31;100769.45;;;5.72;53.64
68380;BME280;57711;53.196;19.638;2023-04-05T11:28:59;100769.46;;;5.72;53.54
68380;BME280;57711;53.196;19.638;2023-04-05T11:31:26;100770.98;;;5.71;53.39
68380;BME280;57711;53.196;19.638;2023-04-05T11:36:37;100775.18;;;5.75;53.56
68380;BME280;57711;53.196;19.638;2023-04-05T11:41:54;100781.54;;;5.82;53.49
68380;BME280;57711;53.196;19.638;2023-04-05T11:44:22;100776.26;;;5.87;53.57
68380;BME280;57711;53.196;19.638;2023-04-05T11:46:53;100777.55;;;5.92;53.45
68380;BME280;57711;53.196;19.638;2023-04-05T11:49:22;100781.21;;;5.97;53.43
68380;BME280;57711;53.196;19.638;2023-04-05T11:51:51;100778.39;;;6.00;53.38
68380;BME280;57711;53.196;19.638;2023-04-05T11:54:32;100776.39;;;6.03;53.51
68380;BME280;57711;53.196;19.638;2023-04-05T11:57:00;100773.36;;;6.05;53.24
68380;BME280;57711;53.196;19.638;2023-04-05T11:59:35;100775.98;;;6.01;53.22
68380;BME280;57711;53.196;19.638;2023-04-05T12:02:04;100774.78;;;5.96;53.10
68380;BME280;57711;53.196;19.638;2023-04-05T12:04:35;100776.17;;;5.94;53.18
68380;BME280;57711;53.196;19.638;2023-04-05T12:09:56;100773.22;;;5.96;53.14
68380;BME280;57711;53.196;19.638;2023-04-05T12:12:23;100772.16;;;5.92;53.07
68380;BME280;57711;53.196;19.638;2023-04-05T12:14:50;100766.49;;;5.88;52.99
68380;BME280;57711;53.196;19.638;2023-04-05T12:17:17;100763.42;;;5.82;52.99
68380;BME280;57711;53.196;19.638;2023-04-05T12:19:45;100758.69;;;5.78;53.02
68380;BME280;57711;53.196;19.638;2023-04-05T12:22:12;100759.95;;;5.83;53.11
68380;BME280;57711;53.196;19.638;2023-04-05T12:24:39;100759.14;;;5.97;53.24
68380;BME280;57711;53.196;19.638;2023-04-05T12:27:07;100753.14;;;6.19;53.30
68380;BME280;57711;53.196;19.638;2023-04-05T12:29:34;100752.36;;;6.42;53.20
68380;BME280;57711;53.196;19.638;2023-04-05T12:32:01;100746.30;;;6.55;53.07
68380;BME280;57711;53.196;19.638;2023-04-05T12:34:30;100747.55;;;6.64;53.10
68380;BME280;57711;53.196;19.638;2023-04-05T12:36:59;100744.25;;;6.70;52.94
68380;BME280;57711;53.196;19.638;2023-04-05T12:39:28;100744.97;;;6.70;52.84
68380;BME280;57711;53.196;19.638;2023-04-05T12:42:00;100742.48;;;6.75;52.93
68380;BME280;57711;53.196;19.638;2023-04-05T12:44:29;100745.13;;;6.82;52.99
68380;BME280;57711;53.196;19.638;2023-04-05T12:47:00;100743.29;;;6.85;52.95
68380;BME280;57711;53.196;19.638;2023-04-05T12:49:28;100743.23;;;6.83;52.85
68380;BME280;57711;53.196;19.638;2023-04-05T12:51:59;100747.30;;;6.82;52.73
68380;BME280;57711;53.196;19.638;2023-04-05T12:54:28;100748.52;;;6.77;52.62
68380;BME280;57711;53.196;19.638;2023-04-05T12:56:56;100744.77;;;6.71;52.70
68380;BME280;57711;53.196;19.638;2023-04-05T12:59:24;100747.45;;;6.66;52.61
68380;BME280;57711;53.196;19.638;2023-04-05T13:01:51;100748.98;;;6.58;52.47
68380;BME280;57711;53.196;19.638;2023-04-05T13:04:18;100752.65;;;6.52;52.38
68380;BME280;57711;53.196;19.638;2023-04-05T13:06:46;100749.02;;;6.47;52.47
68380;BME280;57711;53.196;19.638;2023-04-05T13:09:14;100751.30;;;6.42;52.50
68380;BME280;57711;53.196;19.638;2023-04-05T13:11:41;100752.61;;;6.38;52.54
68380;BME280;57711;53.196;19.638;2023-04-05T13:14:08;100753.81;;;6.36;52.42
68380;BME280;57711;53.196;19.638;2023-04-05T13:16:35;100750.96;;;6.33;52.60
68380;BME280;57711;53.196;19.638;2023-04-05T13:19:03;100751.23;;;6.29;52.30
68380;BME280;57711;53.196;19.638;2023-04-05T13:21:30;100748.56;;;6.26;52.58
68380;BME280;57711;53.196;19.638;2023-04-05T13:23:58;100750.21;;;6.25;52.45
68380;BME280;57711;53.196;19.638;2023-04-05T13:26:25;100748.30;;;6.24;52.54
68380;BME280;57711;53.196;19.638;2023-04-05T13:28:52;100749.04;;;6.24;52.51
68380;BME280;57711;53.196;19.638;2023-04-05T13:31:19;100748.73;;;6.23;52.45
68380;BME280;57711;53.196;19.638;2023-04-05T13:33:47;100746.30;;;6.22;52.46
68380;BME280;57711;53.196;19.638;2023-04-05T13:36:14;100749.77;;;6.18;52.21